Terminal Aerodrome Forecast
Issued by NWS Sioux Falls, SD

Home | Current Version | Previous Version | Graphics & Text | Print | Product List | Glossary On
Versions: 1 2 3 4 5 6 7 8 9 10 11 12 13 14 15 16 17 18 19 20 21 22 23 24 25 26 27 28 29 30 31 32 33 34
000
FTUS43 KFSD 241132
TAFSUX
TAF
KSUX 241132Z 2412/2512 14012KT P6SM SCT025 OVC040
      TEMPO 2412/2414 OVC025
     FM241400 16013KT P6SM -SHRA OVC020
     FM241800 15014G20KT P6SM OVC025
     FM250000 13010KT P6SM OVC015
     FM250400 09009KT 6SM -SHRA OVC012
     FM250700 05010KT 3SM RA BR OVC008=

USA.gov is the U.S. government's official web portal to all federal, state and local government web resources and services.